Time;durP1;ratioP1;P1;durP2;ratioP2;P2;SDS_P1;SDS_P2;PMS_P1;PMS_P2;Temp;Humidity;BMP_temperature;BMP_pressure;BME280_temperature;BME280_humidity;BME280_pressure;Samples;Min_cycle;Max_cycle;Signal;HPM_P1;HPM_P2
2023/07/27 00:01:47;;;;;;;;;;;;;;;;;;5023122;28;19921;-81
2023/07/27 00:04:16;;;;;;;0.70;0.60;;;;;;;;;;5024232;28;20200;-81
2023/07/27 00:06:42;;;;;;;;;;;;;;;;;;5011747;28;20323;-79
2023/07/27 00:09:09;;;;;;;0.70;0.50;;;;;;;;;;5012796;28;20423;-80
2023/07/27 00:11:36;;;;;;;0.70;0.60;;;;;;;;;;5010781;28;21164;-80
2023/07/27 00:14:02;;;;;;;0.80;0.80;;;;;;;;;;5029760;28;20442;-80
2023/07/27 00:16:29;;;;;;;0.70;0.70;;;;;;;;;;5015464;28;20459;-81
2023/07/27 00:18:56;;;;;;;2.80;2.50;;;;;;;;;;5013658;28;20861;-81
2023/07/27 00:21:24;;;;;;;0.70;0.70;;;;;;;;;;5007352;28;20507;-82
2023/07/27 00:23:51;;;;;;;1.00;0.90;;;;;;;;;;5012811;28;20440;-82
2023/07/27 00:26:18;;;;;;;0.70;0.70;;;;;;;;;;5013736;28;20458;-81
2023/07/27 00:28:44;;;;;;;0.70;0.70;;;;;;;;;;5015018;28;20447;-81
2023/07/27 00:31:12;;;;;;;0.80;0.70;;;;;;;;;;4996816;28;20483;-81
2023/07/27 00:33:38;;;;;;;0.80;0.70;;;;;;;;;;5011329;28;20445;-79
2023/07/27 00:36:05;;;;;;;;;;;;;;;;;;5024818;28;20344;-81
2023/07/27 00:38:33;;;;;;;0.70;0.70;;;;;;;;;;5015631;28;20203;-80
2023/07/27 00:41:01;;;;;;;;;;;;;;;;;;5013890;28;20844;-80
2023/07/27 00:43:28;;;;;;;0.80;0.80;;;;;;;;;;5008593;28;20204;-80
2023/07/27 00:45:55;;;;;;;0.70;0.50;;;;;;;;;;5018288;28;20809;-81
2023/07/27 00:48:22;;;;;;;0.70;0.60;;;;;;;;;;5014376;28;20477;-82
2023/07/27 00:50:49;;;;;;;0.70;0.70;;;;;;;;;;5015844;28;20470;-79
2023/07/27 00:53:16;;;;;;;1.20;0.50;;;;;;;;;;5014344;28;20931;-82
2023/07/27 00:55:45;;;;;;;2.40;1.10;;;;;;;;;;5007457;28;20418;-81
2023/07/27 00:58:11;;;;;;;0.70;0.60;;;;;;;;;;5004742;28;20411;-80
2023/07/27 01:00:40;;;;;;;1.20;0.90;;;;;;;;;;5011734;28;20580;-79
2023/07/27 01:03:06;;;;;;;0.70;0.50;;;;;;;;;;5025559;28;20404;-81
2023/07/27 01:05:33;;;;;;;;;;;;;;;;;;5015176;28;20414;-81
2023/07/27 01:07:59;;;;;;;;;;;;;;;;;;5011388;28;19969;-81
2023/07/27 01:10:26;;;;;;;;;;;;;;;;;;4989404;28;19921;-81
2023/07/27 01:12:57;;;;;;;2.07;1.10;;;;;;;;;;5021885;28;20198;-80
2023/07/27 01:15:26;;;;;;;0.70;0.70;;;;;;;;;;4991167;28;20968;-81
2023/07/27 01:17:55;;;;;;;1.57;1.37;;;;;;;;;;5012930;28;20489;-82
2023/07/27 01:20:25;;;;;;;0.70;0.70;;;;;;;;;;5014575;28;20963;-80
2023/07/27 01:23:06;;;;;;;1.30;1.20;;;;;;;;;;5014301;28;20482;-81
2023/07/27 01:25:39;;;;;;;0.70;0.67;;;;;;;;;;4995710;28;20933;-80
2023/07/27 01:28:05;;;;;;;;;;;;;;;;;;4998443;28;20319;-81
2023/07/27 01:30:32;;;;;;;;;;;;;;;;;;4994806;28;19929;-79
2023/07/27 01:32:58;;;;;;;;;;;;;;;;;;5003798;28;19987;-80
2023/07/27 01:35:25;;;;;;;;;;;;;;;;;;5032996;28;19921;-80
2023/07/27 01:37:54;;;;;;;0.70;0.52;;;;;;;;;;5020214;28;20467;-82
2023/07/27 01:40:21;;;;;;;0.80;0.80;;;;;;;;;;5013050;28;20201;-81
2023/07/27 01:42:49;;;;;;;0.70;0.70;;;;;;;;;;5016349;28;20455;-79
2023/07/27 01:45:16;;;;;;;;;;;;;;;;;;5029528;28;20277;-81
2023/07/27 01:47:42;;;;;;;;;;;;;;;;;;5020179;28;19921;-80
2023/07/27 01:50:10;;;;;;;0.80;0.77;;;;;;;;;;5011117;28;20209;-80
2023/07/27 01:52:37;;;;;;;0.80;0.80;;;;;;;;;;5001466;28;20550;-81
2023/07/27 01:55:07;;;;;;;0.70;0.70;;;;;;;;;;5016399;28;20959;-81
2023/07/27 01:57:34;;;;;;;0.80;0.70;;;;;;;;;;5017763;28;20821;-80
2023/07/27 02:00:02;;;;;;;0.80;0.80;;;;;;;;;;5011776;28;20509;-81
2023/07/27 02:02:39;;;;;;;0.90;0.80;;;;;;;;;;5023861;28;20425;-81
2023/07/27 02:05:08;;;;;;;0.70;0.70;;;;;;;;;;5017377;28;20461;-81
2023/07/27 02:07:34;;;;;;;0.77;0.73;;;;;;;;;;5018312;28;20464;-80
2023/07/27 02:10:01;;;;;;;0.90;0.80;;;;;;;;;;5014211;28;20423;-81
2023/07/27 02:12:32;;;;;;;0.70;0.60;;;;;;;;;;5013740;28;20452;-81
2023/07/27 02:15:02;;;;;;;1.20;0.60;;;;;;;;;;5010876;28;20419;-80
2023/07/27 02:17:30;;;;;;;0.90;0.70;;;;;;;;;;5011683;28;20416;-81
2023/07/27 02:19:59;;;;;;;0.70;0.50;;;;;;;;;;4991699;28;20489;-81
2023/07/27 02:22:28;;;;;;;1.50;0.70;;;;;;;;;;5017814;28;20423;-80
2023/07/27 02:24:55;;;;;;;0.97;0.80;;;;;;;;;;5014927;28;20284;-79
2023/07/27 02:27:22;;;;;;;0.70;0.60;;;;;;;;;;5020147;28;20492;-80
2023/07/27 02:29:50;;;;;;;0.80;0.70;;;;;;;;;;5018786;28;20455;-80
2023/07/27 02:32:17;;;;;;;0.80;0.70;;;;;;;;;;5014788;28;20548;-81
2023/07/27 02:34:44;;;;;;;0.70;0.63;;;;;;;;;;5015300;28;20461;-81
2023/07/27 02:37:13;;;;;;;0.77;0.70;;;;;;;;;;5010891;28;20471;-80
2023/07/27 02:39:40;;;;;;;0.70;0.70;;;;;;;;;;5017796;28;20517;-80
2023/07/27 02:42:06;;;;;;;0.70;0.60;;;;;;;;;;5016854;28;20871;-79
2023/07/27 02:44:33;;;;;;;0.70;0.70;;;;;;;;;;5005922;28;20447;-79
2023/07/27 02:46:59;;;;;;;;;;;;;;;;;;5021805;28;20300;-82
2023/07/27 02:49:26;;;;;;;;;;;;;;;;;;5016116;28;19940;-79
2023/07/27 02:51:54;;;;;;;0.80;0.80;;;;;;;;;;5012946;28;20220;-81
2023/07/27 02:54:21;;;;;;;0.80;0.70;;;;;;;;;;5011373;28;20472;-78
2023/07/27 02:56:48;;;;;;;0.70;0.70;;;;;;;;;;5010744;28;20451;-77
2023/07/27 02:59:16;;;;;;;0.90;0.90;;;;;;;;;;5011077;28;20956;-79
2023/07/27 03:01:44;;;;;;;0.90;0.90;;;;;;;;;;5027924;28;20435;-79
2023/07/27 03:04:18;;;;;;;0.77;0.70;;;;;;;;;;5000130;28;20439;-77
2023/07/27 03:06:45;;;;;;;0.70;0.60;;;;;;;;;;5001977;28;20459;-76
2023/07/27 03:09:14;;;;;;;0.70;0.60;;;;;;;;;;4999618;28;20521;-78
2023/07/27 03:11:41;;;;;;;1.00;0.90;;;;;;;;;;5009889;28;20535;-76
2023/07/27 03:14:07;;;;;;;0.73;0.73;;;;;;;;;;5013532;28;20515;-74
2023/07/27 03:16:34;;;;;;;1.07;1.00;;;;;;;;;;5013373;28;20448;-76
2023/07/27 03:19:02;;;;;;;0.80;0.80;;;;;;;;;;5012756;28;20947;-75
2023/07/27 03:21:28;;;;;;;0.80;0.80;;;;;;;;;;5026444;28;20465;-76
2023/07/27 03:23:55;;;;;;;0.80;0.73;;;;;;;;;;5022580;28;20510;-74
2023/07/27 03:26:23;;;;;;;0.80;0.80;;;;;;;;;;5014223;28;20558;-73
2023/07/27 03:28:52;;;;;;;2.07;1.33;;;;;;;;;;5012916;28;20447;-74
2023/07/27 03:31:19;;;;;;;0.80;0.73;;;;;;;;;;5013492;28;20476;-73
2023/07/27 03:33:46;;;;;;;0.70;0.70;;;;;;;;;;5014998;28;20878;-74
2023/07/27 03:36:13;;;;;;;0.80;0.80;;;;;;;;;;5020537;28;20433;-76
2023/07/27 03:38:42;;;;;;;1.20;1.10;;;;;;;;;;5006543;28;20460;-75
2023/07/27 03:41:10;;;;;;;0.70;0.60;;;;;;;;;;5010823;28;20443;-75
2023/07/27 03:43:39;;;;;;;1.27;1.20;;;;;;;;;;5013242;28;20478;-75
2023/07/27 03:46:06;;;;;;;0.70;0.70;;;;;;;;;;5022789;28;20440;-76
2023/07/27 03:48:32;;;;;;;0.70;0.70;;;;;;;;;;5023966;28;20424;-76
2023/07/27 03:50:59;;;;;;;0.70;0.70;;;;;;;;;;5008512;28;20467;-76
2023/07/27 03:53:26;;;;;;;0.70;0.70;;;;;;;;;;5025890;28;20469;-75
2023/07/27 03:55:53;;;;;;;0.80;0.80;;;;;;;;;;4996008;28;20975;-75
2023/07/27 03:58:20;;;;;;;0.80;0.70;;;;;;;;;;5022470;28;20496;-74
2023/07/27 04:00:48;;;;;;;0.80;0.80;;;;;;;;;;5022878;28;20454;-73
2023/07/27 04:03:15;;;;;;;0.80;0.80;;;;;;;;;;5012322;28;20443;-74
2023/07/27 04:05:42;;;;;;;0.70;0.70;;;;;;;;;;5005287;28;20982;-74
2023/07/27 04:08:10;;;;;;;0.80;0.80;;;;;;;;;;5028089;28;20549;-72
2023/07/27 04:10:37;;;;;;;0.70;0.70;;;;;;;;;;5003746;28;20438;-74
2023/07/27 04:13:04;;;;;;;0.70;0.70;;;;;;;;;;5024205;28;20526;-72
2023/07/27 04:15:30;;;;;;;0.70;0.70;;;;;;;;;;5011283;28;20440;-73
2023/07/27 04:17:58;;;;;;;0.70;0.70;;;;;;;;;;5021877;28;20435;-75
2023/07/27 04:20:25;;;;;;;0.70;0.60;;;;;;;;;;5005037;28;20955;-75
2023/07/27 04:22:52;;;;;;;0.80;0.77;;;;;;;;;;5022382;28;20446;-72
2023/07/27 04:25:18;;;;;;;0.70;0.70;;;;;;;;;;5012089;28;20441;-73
2023/07/27 04:27:45;;;;;;;0.70;0.70;;;;;;;;;;5006824;28;20460;-74
2023/07/27 04:30:12;;;;;;;1.00;0.90;;;;;;;;;;5022408;28;20466;-71
2023/07/27 04:32:39;;;;;;;0.70;0.70;;;;;;;;;;5005640;28;20469;-73
2023/07/27 04:35:07;;;;;;;0.70;0.70;;;;;;;;;;5012349;28;20453;-73
2023/07/27 04:37:34;;;;;;;0.70;0.70;;;;;;;;;;5002484;28;20883;-71
2023/07/27 04:40:04;;;;;;;0.70;0.60;;;;;;;;;;5030110;28;20500;-73
2023/07/27 04:42:31;;;;;;;1.10;1.00;;;;;;;;;;5027961;28;20782;-72
2023/07/27 04:44:57;;;;;;;0.70;0.60;;;;;;;;;;5022507;28;20507;-73
2023/07/27 04:47:26;;;;;;;0.70;0.70;;;;;;;;;;5012736;28;20529;-73
2023/07/27 04:49:53;;;;;;;0.70;0.70;;;;;;;;;;5022200;28;20797;-72
2023/07/27 04:52:21;;;;;;;0.93;0.90;;;;;;;;;;5012261;28;21117;-70
2023/07/27 04:54:48;;;;;;;0.70;0.70;;;;;;;;;;5007732;28;20443;-71
2023/07/27 04:57:14;;;;;;;0.70;0.70;;;;;;;;;;5013329;28;20446;-72
2023/07/27 04:59:41;;;;;;;0.70;0.70;;;;;;;;;;5011789;28;20449;-73
2023/07/27 05:02:07;;;;;;;0.70;0.70;;;;;;;;;;5022372;28;20552;-72
2023/07/27 05:04:34;;;;;;;1.10;1.00;;;;;;;;;;5022587;28;20933;-72
2023/07/27 05:07:01;;;;;;;0.97;0.90;;;;;;;;;;5022452;28;20459;-72
2023/07/27 05:09:30;;;;;;;1.00;0.90;;;;;;;;;;5027834;28;20462;-72
2023/07/27 05:11:57;;;;;;;0.70;0.60;;;;;;;;;;5028453;28;20546;-73
2023/07/27 05:14:23;;;;;;;0.70;0.60;;;;;;;;;;5013703;28;20432;-73
2023/07/27 05:16:50;;;;;;;0.73;0.73;;;;;;;;;;5023292;28;20499;-72
2023/07/27 05:19:17;;;;;;;0.70;0.70;;;;;;;;;;5025680;28;20442;-73
2023/07/27 05:21:43;;;;;;;0.77;0.77;;;;;;;;;;5027933;28;20435;-73
2023/07/27 05:24:10;;;;;;;0.70;0.70;;;;;;;;;;5014571;28;20506;-73
2023/07/27 05:26:38;;;;;;;1.00;0.90;;;;;;;;;;5023399;28;20868;-72
2023/07/27 05:29:05;;;;;;;0.70;0.70;;;;;;;;;;5024988;28;20443;-71
2023/07/27 05:31:31;;;;;;;0.73;0.73;;;;;;;;;;5026539;28;20444;-72
2023/07/27 05:33:58;;;;;;;0.70;0.70;;;;;;;;;;5024034;28;20533;-71
2023/07/27 05:36:25;;;;;;;0.70;0.70;;;;;;;;;;5012809;28;20470;-74
2023/07/27 05:38:51;;;;;;;0.70;0.70;;;;;;;;;;5020728;28;20491;-73
2023/07/27 05:41:18;;;;;;;0.70;0.70;;;;;;;;;;5030415;28;20494;-73
2023/07/27 05:43:48;;;;;;;0.70;0.70;;;;;;;;;;5029393;28;20940;-72
2023/07/27 05:46:15;;;;;;;0.70;0.70;;;;;;;;;;5014921;28;20439;-73
2023/07/27 05:48:42;;;;;;;0.70;0.70;;;;;;;;;;5030175;28;20439;-72
2023/07/27 05:51:09;;;;;;;1.17;0.80;;;;;;;;;;5026015;28;20446;-72
2023/07/27 05:53:36;;;;;;;0.70;0.70;;;;;;;;;;5008672;28;20924;-72
2023/07/27 05:56:02;;;;;;;0.70;0.70;;;;;;;;;;5027517;28;21077;-73
2023/07/27 05:58:29;;;;;;;0.70;0.70;;;;;;;;;;5023892;28;21011;-72
2023/07/27 06:01:00;;;;;;;0.70;0.60;;;;;;;;;;5027896;28;20442;-74
2023/07/27 06:03:27;;;;;;;0.70;0.70;;;;;;;;;;5022803;28;20451;-72
2023/07/27 06:05:54;;;;;;;0.70;0.70;;;;;;;;;;5024054;28;20923;-73
2023/07/27 06:08:21;;;;;;;0.73;0.73;;;;;;;;;;5026209;28;20460;-72
2023/07/27 06:10:48;;;;;;;0.67;0.67;;;;;;;;;;5029023;28;20473;-72
2023/07/27 06:13:15;;;;;;;0.70;0.70;;;;;;;;;;5006475;28;20525;-72
2023/07/27 06:15:45;;;;;;;1.10;0.97;;;;;;;;;;5026689;28;20487;-72
2023/07/27 06:18:13;;;;;;;0.70;0.70;;;;;;;;;;5022009;28;20517;-73
2023/07/27 06:20:40;;;;;;;0.70;0.60;;;;;;;;;;5007183;28;20548;-73
2023/07/27 06:23:06;;;;;;;0.67;0.60;;;;;;;;;;5026845;28;20466;-74
2023/07/27 06:25:33;;;;;;;0.93;0.93;;;;;;;;;;4996041;28;20498;-73
2023/07/27 06:27:59;;;;;;;0.70;0.70;;;;;;;;;;5011340;28;20444;-73
2023/07/27 06:30:26;;;;;;;0.70;0.70;;;;;;;;;;5007109;28;20544;-73
2023/07/27 06:32:53;;;;;;;0.73;0.73;;;;;;;;;;5009413;28;20507;-74
2023/07/27 06:35:21;;;;;;;1.47;1.27;;;;;;;;;;5028275;28;20447;-72
2023/07/27 06:37:48;;;;;;;0.70;0.70;;;;;;;;;;5013732;28;20470;-73
2023/07/27 06:40:14;;;;;;;0.70;0.70;;;;;;;;;;5013201;28;20442;-72
2023/07/27 06:42:41;;;;;;;0.70;0.70;;;;;;;;;;5028619;28;20431;-72
2023/07/27 06:45:08;;;;;;;0.70;0.70;;;;;;;;;;5025249;28;20552;-73
2023/07/27 06:47:35;;;;;;;0.70;0.70;;;;;;;;;;5026604;28;20427;-72
2023/07/27 06:50:01;;;;;;;0.70;0.70;;;;;;;;;;5009088;28;20471;-74
2023/07/27 06:52:30;;;;;;;0.70;0.70;;;;;;;;;;5008136;28;20465;-73
2023/07/27 06:54:57;;;;;;;0.70;0.70;;;;;;;;;;5014612;28;20479;-72
2023/07/27 06:57:24;;;;;;;0.70;0.70;;;;;;;;;;5023986;28;20843;-74
2023/07/27 06:59:51;;;;;;;0.70;0.60;;;;;;;;;;5023441;28;20848;-73
2023/07/27 07:02:18;;;;;;;0.70;0.60;;;;;;;;;;5027751;28;20451;-72
2023/07/27 07:04:45;;;;;;;0.80;0.80;;;;;;;;;;5024099;28;20952;-73
2023/07/27 07:07:12;;;;;;;1.53;1.43;;;;;;;;;;5021375;28;20475;-74
2023/07/27 07:09:41;;;;;;;0.70;0.70;;;;;;;;;;5025305;28;20774;-75
2023/07/27 07:12:08;;;;;;;0.70;0.60;;;;;;;;;;5013415;28;20442;-72
2023/07/27 07:14:35;;;;;;;0.70;0.67;;;;;;;;;;5026159;28;20460;-74
2023/07/27 07:17:02;;;;;;;0.77;0.77;;;;;;;;;;5023716;28;20439;-74
2023/07/27 07:19:29;;;;;;;1.17;1.07;;;;;;;;;;5017365;28;20452;-73
2023/07/27 07:21:56;;;;;;;0.70;0.70;;;;;;;;;;5027223;28;20772;-74
2023/07/27 07:24:23;;;;;;;1.23;1.20;;;;;;;;;;5028362;28;20441;-74
2023/07/27 07:26:50;;;;;;;0.70;0.67;;;;;;;;;;5026148;28;20432;-73
2023/07/27 07:29:17;;;;;;;1.00;1.00;;;;;;;;;;5011411;28;20432;-74
2023/07/27 07:31:44;;;;;;;2.13;1.93;;;;;;;;;;5020368;28;20439;-73
2023/07/27 07:34:11;;;;;;;0.70;0.60;;;;;;;;;;5025504;28;20481;-74
2023/07/27 07:36:37;;;;;;;0.70;0.70;;;;;;;;;;5012374;28;20449;-74
2023/07/27 07:39:04;;;;;;;0.70;0.60;;;;;;;;;;5027101;28;20612;-72
2023/07/27 07:41:31;;;;;;;0.70;0.67;;;;;;;;;;5023595;28;20484;-73
2023/07/27 07:43:59;;;;;;;0.77;0.77;;;;;;;;;;5007467;28;20964;-72
2023/07/27 07:46:25;;;;;;;0.70;0.70;;;;;;;;;;5021651;28;20464;-74
2023/07/27 07:48:52;;;;;;;0.90;0.90;;;;;;;;;;5021892;28;20806;-74
2023/07/27 07:51:19;;;;;;;0.80;0.80;;;;;;;;;;4993390;28;21043;-72
2023/07/27 07:53:46;;;;;;;0.70;0.60;;;;;;;;;;5022367;28;20534;-74
2023/07/27 07:56:13;;;;;;;0.70;0.70;;;;;;;;;;5026751;28;20444;-73
2023/07/27 07:58:40;;;;;;;0.70;0.70;;;;;;;;;;5022337;28;20468;-74
2023/07/27 08:01:08;;;;;;;0.80;0.80;;;;;;;;;;5026161;28;20446;-74
2023/07/27 08:03:35;;;;;;;0.73;0.73;;;;;;;;;;5026065;28;20961;-72
2023/07/27 08:06:01;;;;;;;0.80;0.80;;;;;;;;;;5024236;28;20466;-75
2023/07/27 08:08:28;;;;;;;0.70;0.70;;;;;;;;;;5023681;28;20495;-74
2023/07/27 08:10:59;;;;;;;0.70;0.70;;;;;;;;;;5004651;28;20467;-74
2023/07/27 08:13:26;;;;;;;0.60;0.60;;;;;;;;;;5006801;28;20491;-73
2023/07/27 08:15:53;;;;;;;0.70;0.70;;;;;;;;;;5025001;28;20460;-73
2023/07/27 08:18:21;;;;;;;0.60;0.60;;;;;;;;;;5022873;28;20830;-72
2023/07/27 08:20:58;;;;;;;0.70;0.70;;;;;;;;;;5012514;28;20483;-72
2023/07/27 08:23:25;;;;;;;0.70;0.70;;;;;;;;;;5023898;28;20544;-75
2023/07/27 08:25:53;;;;;;;1.30;0.90;;;;;;;;;;5025366;28;20444;-75
2023/07/27 08:28:20;;;;;;;0.70;0.70;;;;;;;;;;5026209;28;20539;-73
2023/07/27 08:30:47;;;;;;;0.70;0.60;;;;;;;;;;5011173;28;20476;-74
2023/07/27 08:33:14;;;;;;;0.70;0.70;;;;;;;;;;5023449;28;20487;-76
2023/07/27 08:35:44;;;;;;;0.70;0.70;;;;;;;;;;4994680;28;20450;-75
2023/07/27 08:38:10;;;;;;;0.70;0.63;;;;;;;;;;5020558;28;20481;-75
2023/07/27 08:40:37;;;;;;;0.80;0.80;;;;;;;;;;5024222;28;21091;-74
2023/07/27 08:43:04;;;;;;;0.70;0.70;;;;;;;;;;5006311;28;20482;-75
2023/07/27 08:45:31;;;;;;;0.67;0.60;;;;;;;;;;5018600;28;20442;-74
2023/07/27 08:47:58;;;;;;;0.80;0.80;;;;;;;;;;4992797;28;20779;-73
2023/07/27 08:50:25;;;;;;;0.70;0.70;;;;;;;;;;5019235;28;20443;-76
2023/07/27 08:52:53;;;;;;;0.70;0.70;;;;;;;;;;5025418;28;20992;-73
2023/07/27 08:55:21;;;;;;;0.70;0.60;;;;;;;;;;5024546;28;20426;-74
2023/07/27 08:57:48;;;;;;;0.67;0.60;;;;;;;;;;5025332;28;20542;-72
2023/07/27 09:00:16;;;;;;;0.70;0.70;;;;;;;;;;5025914;28;20471;-75
2023/07/27 09:02:43;;;;;;;0.70;0.67;;;;;;;;;;5008369;28;20436;-72
2023/07/27 09:05:11;;;;;;;0.60;0.60;;;;;;;;;;5024573;28;20437;-74
2023/07/27 09:07:38;;;;;;;0.70;0.70;;;;;;;;;;5010791;28;20465;-75
2023/07/27 09:10:08;;;;;;;0.80;0.80;;;;;;;;;;5027885;28;20441;-71
2023/07/27 09:12:35;;;;;;;0.70;0.70;;;;;;;;;;5025884;28;20467;-72
2023/07/27 09:15:07;;;;;;;0.70;0.60;;;;;;;;;;5005133;28;20438;-74
2023/07/27 09:17:34;;;;;;;0.80;0.80;;;;;;;;;;5022645;28;20460;-73
2023/07/27 09:20:01;;;;;;;0.90;0.90;;;;;;;;;;4989799;28;21006;-73
2023/07/27 09:22:28;;;;;;;3.37;1.17;;;;;;;;;;5021770;28;20564;-72
2023/07/27 09:24:56;;;;;;;0.70;0.70;;;;;;;;;;5012171;28;20437;-74
2023/07/27 09:27:24;;;;;;;0.70;0.70;;;;;;;;;;5010408;28;20812;-74
2023/07/27 09:29:56;;;;;;;0.70;0.60;;;;;;;;;;5022831;28;20525;-74
2023/07/27 09:32:23;;;;;;;0.70;0.70;;;;;;;;;;5024058;28;20441;-73
2023/07/27 09:34:54;;;;;;;0.70;0.70;;;;;;;;;;5019468;28;20521;-73
2023/07/27 09:37:21;;;;;;;1.53;1.43;;;;;;;;;;5019060;28;20539;-74
2023/07/27 09:39:48;;;;;;;0.70;0.70;;;;;;;;;;5004290;28;20509;-73
2023/07/27 09:42:15;;;;;;;0.70;0.60;;;;;;;;;;5016308;28;20844;-74
2023/07/27 09:44:48;;;;;;;1.13;0.83;;;;;;;;;;5023188;28;20441;-73
2023/07/27 09:47:17;;;;;;;0.70;0.70;;;;;;;;;;5023309;28;20468;-75
2023/07/27 09:49:46;;;;;;;0.77;0.77;;;;;;;;;;5005374;28;20447;-74
2023/07/27 09:52:12;;;;;;;0.70;0.70;;;;;;;;;;5018041;28;20490;-75
2023/07/27 09:54:39;;;;;;;0.70;0.60;;;;;;;;;;4990987;28;20500;-74
2023/07/27 09:57:06;;;;;;;0.63;0.60;;;;;;;;;;5009923;28;20451;-74
2023/07/27 09:59:33;;;;;;;0.80;0.77;;;;;;;;;;5012079;28;20522;-74
2023/07/27 10:02:02;;;;;;;0.70;0.60;;;;;;;;;;5013252;28;20437;-75
2023/07/27 10:04:29;;;;;;;0.70;0.70;;;;;;;;;;5015141;28;20443;-75
2023/07/27 10:06:56;;;;;;;0.70;0.70;;;;;;;;;;5015503;28;20444;-72
2023/07/27 10:09:23;;;;;;;0.80;0.80;;;;;;;;;;5023667;28;20700;-76
2023/07/27 10:11:54;;;;;;;1.10;1.00;;;;;;;;;;5027810;28;20978;-73
2023/07/27 10:14:23;;;;;;;0.70;0.70;;;;;;;;;;5025516;28;20477;-75
2023/07/27 10:16:59;;;;;;;0.70;0.60;;;;;;;;;;5026769;28;20442;-75
2023/07/27 10:19:37;;;;;;;0.73;0.73;;;;;;;;;;5023510;28;20438;-75
2023/07/27 10:22:06;;;;;;;0.70;0.67;;;;;;;;;;5011863;28;20444;-75
2023/07/27 10:24:45;;;;;;;0.70;0.70;;;;;;;;;;5022797;28;20434;-75
2023/07/27 10:27:11;;;;;;;0.80;0.80;;;;;;;;;;5025135;28;20521;-75
2023/07/27 10:29:38;;;;;;;0.70;0.60;;;;;;;;;;5025964;28;20457;-75
2023/07/27 10:32:05;;;;;;;0.90;0.80;;;;;;;;;;5021959;28;20448;-75
2023/07/27 10:34:34;;;;;;;1.00;1.00;;;;;;;;;;5015112;28;20566;-75
2023/07/27 10:37:09;;;;;;;0.67;0.60;;;;;;;;;;5024259;28;20462;-74
2023/07/27 10:39:42;;;;;;;0.80;0.80;;;;;;;;;;5015119;28;20436;-74
2023/07/27 10:42:12;;;;;;;0.70;0.60;;;;;;;;;;5019422;28;20436;-75
2023/07/27 10:44:42;;;;;;;0.70;0.70;;;;;;;;;;5025349;28;20884;-75
2023/07/27 10:47:09;;;;;;;0.80;0.80;;;;;;;;;;5030395;28;20930;-74
2023/07/27 10:49:42;;;;;;;0.70;0.70;;;;;;;;;;5025800;28;20448;-75
2023/07/27 10:52:09;;;;;;;0.70;0.70;;;;;;;;;;5023968;28;20461;-75
2023/07/27 10:54:38;;;;;;;0.70;0.70;;;;;;;;;;5020771;28;20583;-73
2023/07/27 10:57:05;;;;;;;0.70;0.70;;;;;;;;;;5025261;28;20472;-74
2023/07/27 10:59:35;;;;;;;0.70;0.70;;;;;;;;;;5014393;28;20492;-75
2023/07/27 11:02:03;;;;;;;0.70;0.70;;;;;;;;;;5028781;28;20987;-72
2023/07/27 11:04:32;;;;;;;4.63;1.83;;;;;;;;;;5023863;28;20459;-72
2023/07/27 11:07:00;;;;;;;0.63;0.60;;;;;;;;;;5020654;28;20438;-74
2023/07/27 11:09:27;;;;;;;0.73;0.73;;;;;;;;;;5023320;28;20437;-74
2023/07/27 11:11:58;;;;;;;0.80;0.80;;;;;;;;;;5023164;28;20938;-73
2023/07/27 11:14:25;;;;;;;1.70;0.93;;;;;;;;;;5029262;28;20518;-73
2023/07/27 11:16:51;;;;;;;0.70;0.63;;;;;;;;;;5016976;28;20453;-72
2023/07/27 11:19:18;;;;;;;0.70;0.70;;;;;;;;;;5027467;28;20442;-75
2023/07/27 11:21:45;;;;;;;0.70;0.70;;;;;;;;;;5020942;28;20441;-73
2023/07/27 11:24:13;;;;;;;0.60;0.60;;;;;;;;;;5025922;28;20428;-72
2023/07/27 11:26:40;;;;;;;0.60;0.60;;;;;;;;;;5023468;28;20436;-73
2023/07/27 11:29:08;;;;;;;0.70;0.60;;;;;;;;;;5023451;28;20464;-75
2023/07/27 11:31:34;;;;;;;0.60;0.60;;;;;;;;;;5023377;28;20461;-75
2023/07/27 11:34:02;;;;;;;0.70;0.70;;;;;;;;;;5023147;28;20806;-74
2023/07/27 11:36:31;;;;;;;1.50;1.27;;;;;;;;;;5023144;28;20432;-75
2023/07/27 11:38:58;;;;;;;0.70;0.60;;;;;;;;;;5024376;28;20452;-76
2023/07/27 11:41:28;;;;;;;1.00;1.00;;;;;;;;;;5014455;28;20503;-76
2023/07/27 11:43:58;;;;;;;0.70;0.70;;;;;;;;;;5001583;28;20464;-74
2023/07/27 11:46:26;;;;;;;0.70;0.63;;;;;;;;;;5013869;28;20589;-75
2023/07/27 11:48:53;;;;;;;0.70;0.60;;;;;;;;;;5030872;28;20933;-75
2023/07/27 11:51:33;;;;;;;0.80;0.80;;;;;;;;;;5010821;28;20855;-75
2023/07/27 11:54:00;;;;;;;0.70;0.70;;;;;;;;;;5013257;28;21018;-75
2023/07/27 11:56:32;;;;;;;0.70;0.70;;;;;;;;;;5006951;28;20534;-75
2023/07/27 11:58:59;;;;;;;1.63;1.53;;;;;;;;;;5024060;28;20469;-75
2023/07/27 12:01:27;;;;;;;1.00;0.90;;;;;;;;;;5014248;28;20456;-74
2023/07/27 12:03:54;;;;;;;0.70;0.70;;;;;;;;;;5024821;28;20480;-75
2023/07/27 12:06:22;;;;;;;0.80;0.80;;;;;;;;;;5011949;28;20437;-76
2023/07/27 12:08:49;;;;;;;0.70;0.60;;;;;;;;;;5025211;28;21022;-76
2023/07/27 12:11:16;;;;;;;0.73;0.73;;;;;;;;;;5014221;28;20506;-75
2023/07/27 12:13:49;;;;;;;0.70;0.70;;;;;;;;;;5006584;28;20431;-75
2023/07/27 12:16:19;;;;;;;0.70;0.60;;;;;;;;;;5025916;28;20973;-74
2023/07/27 12:19:08;;;;;;;0.77;0.77;;;;;;;;;;5025490;28;20436;-76
2023/07/27 12:21:37;;;;;;;0.70;0.60;;;;;;;;;;5010750;28;20445;-75
2023/07/27 12:24:06;;;;;;;0.70;0.70;;;;;;;;;;5012457;28;20511;-75
2023/07/27 12:26:36;;;;;;;0.70;0.60;;;;;;;;;;5022928;28;20486;-73
2023/07/27 12:29:24;;;;;;;0.70;0.60;;;;;;;;;;5012111;28;20445;-74
2023/07/27 12:31:54;;;;;;;0.70;0.70;;;;;;;;;;5005228;28;20684;-74
2023/07/27 12:34:23;;;;;;;0.70;0.70;;;;;;;;;;5008223;28;20552;-75
2023/07/27 12:36:51;;;;;;;0.70;0.60;;;;;;;;;;5011450;28;20441;-75
2023/07/27 12:39:21;;;;;;;0.70;0.60;;;;;;;;;;5023029;28;20953;-71
2023/07/27 12:41:48;;;;;;;0.70;0.70;;;;;;;;;;5024347;28;20437;-74
2023/07/27 12:44:17;;;;;;;0.70;0.60;;;;;;;;;;5002970;28;20509;-75
2023/07/27 12:46:45;;;;;;;0.70;0.60;;;;;;;;;;5011555;28;20846;-75
2023/07/27 12:49:11;;;;;;;0.63;0.60;;;;;;;;;;5012896;28;20444;-76
2023/07/27 12:51:38;;;;;;;0.70;0.60;;;;;;;;;;5023154;28;20448;-75
2023/07/27 12:54:06;;;;;;;0.63;0.60;;;;;;;;;;5027297;28;20593;-75
2023/07/27 12:56:34;;;;;;;0.63;0.60;;;;;;;;;;5010364;28;20434;-75
2023/07/27 12:59:01;;;;;;;0.70;0.60;;;;;;;;;;5023096;28;20854;-73
2023/07/27 13:01:29;;;;;;;0.70;0.67;;;;;;;;;;5008876;28;20523;-73
2023/07/27 13:03:57;;;;;;;0.67;0.63;;;;;;;;;;5023108;28;20930;-75
2023/07/27 13:06:24;;;;;;;0.70;0.60;;;;;;;;;;5009191;28;20965;-75
2023/07/27 13:08:51;;;;;;;0.70;0.60;;;;;;;;;;5021566;28;20473;-74
2023/07/27 13:11:19;;;;;;;0.70;0.60;;;;;;;;;;5025993;28;20524;-75
2023/07/27 13:13:45;;;;;;;0.70;0.60;;;;;;;;;;5024605;28;20432;-74
2023/07/27 13:16:12;;;;;;;0.70;0.70;;;;;;;;;;5008351;28;20507;-73
2023/07/27 13:18:38;;;;;;;0.70;0.60;;;;;;;;;;5026670;28;20800;-72
2023/07/27 13:21:07;;;;;;;0.70;0.70;;;;;;;;;;5024645;28;20448;-75
2023/07/27 13:23:33;;;;;;;0.70;0.60;;;;;;;;;;5021404;28;20480;-75
2023/07/27 13:26:05;;;;;;;0.70;0.70;;;;;;;;;;5017684;28;20415;-76
2023/07/27 13:28:32;;;;;;;0.70;0.70;;;;;;;;;;5022197;28;20425;-73
2023/07/27 13:30:59;;;;;;;0.70;0.60;;;;;;;;;;5024473;28;20440;-75
2023/07/27 13:33:25;;;;;;;0.70;0.70;;;;;;;;;;5014218;28;20872;-75
2023/07/27 13:35:53;;;;;;;0.70;0.70;;;;;;;;;;5027747;28;20969;-74
2023/07/27 13:38:20;;;;;;;1.33;1.23;;;;;;;;;;5022372;28;20914;-74
2023/07/27 13:40:47;;;;;;;0.70;0.70;;;;;;;;;;5014504;28;20413;-73
2023/07/27 13:43:14;;;;;;;0.67;0.60;;;;;;;;;;5026055;28;20445;-73
2023/07/27 13:45:41;;;;;;;0.70;0.70;;;;;;;;;;4999525;28;20453;-73
2023/07/27 13:48:07;;;;;;;0.60;0.60;;;;;;;;;;5027587;28;20429;-73
2023/07/27 13:50:36;;;;;;;0.77;0.77;;;;;;;;;;5026416;28;20925;-75
2023/07/27 13:53:03;;;;;;;0.70;0.60;;;;;;;;;;5024781;28;20500;-74
2023/07/27 13:55:32;;;;;;;0.70;0.60;;;;;;;;;;5026972;28;20460;-74
2023/07/27 13:57:59;;;;;;;0.70;0.70;;;;;;;;;;5023994;28;20415;-75
2023/07/27 14:00:26;;;;;;;1.43;1.33;;;;;;;;;;5014734;28;21025;-75
2023/07/27 14:02:55;;;;;;;0.70;0.70;;;;;;;;;;5008981;28;20502;-75
2023/07/27 14:05:21;;;;;;;0.70;0.60;;;;;;;;;;5026914;28;20433;-76
2023/07/27 14:07:48;;;;;;;0.70;0.70;;;;;;;;;;5027765;28;20548;-75
2023/07/27 14:10:15;;;;;;;0.70;0.70;;;;;;;;;;5025604;28;20963;-75
2023/07/27 14:12:43;;;;;;;0.80;0.80;;;;;;;;;;5013773;28;20442;-74
2023/07/27 14:15:09;;;;;;;0.70;0.70;;;;;;;;;;5022943;28;20451;-74
2023/07/27 14:17:36;;;;;;;0.70;0.60;;;;;;;;;;5023056;28;20430;-73
2023/07/27 14:20:04;;;;;;;0.70;0.60;;;;;;;;;;5007951;28;20437;-73
2023/07/27 14:22:35;;;;;;;0.70;0.60;;;;;;;;;;5010664;28;20494;-74
2023/07/27 14:25:02;;;;;;;0.70;0.60;;;;;;;;;;5022652;28;21002;-74
2023/07/27 14:27:29;;;;;;;0.70;0.70;;;;;;;;;;5008397;28;21656;-73
2023/07/27 14:30:01;;;;;;;0.70;0.60;;;;;;;;;;5028354;28;20461;-76
2023/07/27 14:32:29;;;;;;;0.70;0.60;;;;;;;;;;5026378;28;20401;-75
2023/07/27 14:34:56;;;;;;;0.63;0.60;;;;;;;;;;5028537;28;20480;-76
2023/07/27 14:37:23;;;;;;;1.63;1.07;;;;;;;;;;5026597;28;20423;-75
2023/07/27 14:39:50;;;;;;;0.70;0.60;;;;;;;;;;5014711;28;20445;-75
2023/07/27 14:42:16;;;;;;;0.70;0.70;;;;;;;;;;5013157;28;20469;-75
2023/07/27 14:44:43;;;;;;;0.70;0.60;;;;;;;;;;5029660;28;20421;-75
2023/07/27 14:47:14;;;;;;;0.70;0.60;;;;;;;;;;5025041;28;20520;-75
2023/07/27 14:49:41;;;;;;;0.70;0.60;;;;;;;;;;5027925;28;20524;-76
2023/07/27 14:52:08;;;;;;;0.70;0.60;;;;;;;;;;5023069;28;20555;-76